createdAt,value
2023-09-19T00:01:08.951Z,99842.27
2023-09-19T00:03:45.657Z,99839.27
2023-09-19T00:06:21.700Z,99834.72
2023-09-19T00:08:54.497Z,99832.44
2023-09-19T00:11:27.510Z,99831.88
2023-09-19T00:14:00.808Z,99835.46
2023-09-19T00:16:33.932Z,99832.39
2023-09-19T00:19:10.297Z,99832.38
2023-09-19T00:21:43.232Z,99833.69
2023-09-19T00:24:15.325Z,99836.59
2023-09-19T00:26:49.208Z,99830.59
2023-09-19T00:29:22.694Z,99824.70
2023-09-19T00:31:55.404Z,99826.57
2023-09-19T00:34:27.494Z,99826.33
2023-09-19T00:37:00.937Z,99824.18
2023-09-19T00:39:33.658Z,99822.75
2023-09-19T00:42:06.733Z,99822.04
2023-09-19T00:44:39.705Z,99821.34
2023-09-19T00:47:17.378Z,99824.05
2023-09-19T00:49:53.962Z,99815.89
2023-09-19T00:52:26.694Z,99815.13
2023-09-19T00:55:01.400Z,99814.09
2023-09-19T00:57:35.010Z,99809.52
2023-09-19T01:00:09.807Z,99808.39
2023-09-19T01:02:42.364Z,99806.70
2023-09-19T01:05:15.518Z,99805.40
2023-09-19T01:07:50.276Z,99802.29
2023-09-19T01:10:24.476Z,99798.00
2023-09-19T01:13:06.874Z,99796.43
2023-09-19T01:15:53.612Z,99792.10
2023-09-19T01:18:42.988Z,99796.37
2023-09-19T01:21:24.559Z,99790.36
2023-09-19T01:24:29.274Z,99785.91
2023-09-19T01:27:28.061Z,99779.73
2023-09-19T01:30:12.824Z,99781.08
2023-09-19T01:32:47.892Z,99776.30
2023-09-19T01:35:21.076Z,99774.54
2023-09-19T01:37:55.002Z,99775.41
2023-09-19T01:40:27.760Z,99769.31
2023-09-19T01:43:08.459Z,99769.08
2023-09-19T01:46:00.362Z,99765.05
2023-09-19T01:48:41.606Z,99766.15
2023-09-19T01:51:16.937Z,99763.27
2023-09-19T01:53:58.253Z,99757.48
2023-09-19T01:56:39.160Z,99755.52
2023-09-19T01:59:16.105Z,99752.87
2023-09-19T02:01:50.494Z,99752.79
2023-09-19T02:04:23.953Z,99753.17
2023-09-19T02:06:57.642Z,99752.65
2023-09-19T02:09:31.445Z,99753.02
2023-09-19T02:12:06.130Z,99752.30
2023-09-19T02:14:40.799Z,99746.79
2023-09-19T02:17:13.646Z,99748.09
2023-09-19T02:19:46.112Z,99742.91
2023-09-19T02:22:18.365Z,99740.88
2023-09-19T02:24:52.041Z,99737.61
2023-09-19T02:27:25.082Z,99733.45
2023-09-19T02:29:58.005Z,99732.26
2023-09-19T02:32:31.534Z,99731.81
2023-09-19T02:35:05.738Z,99732.91
2023-09-19T02:37:38.226Z,99730.27
2023-09-19T02:40:20.530Z,99725.84
2023-09-19T02:42:57.709Z,99726.05
2023-09-19T02:45:31.335Z,99727.25
2023-09-19T02:48:06.173Z,99721.32
2023-09-19T02:50:39.722Z,99719.34
2023-09-19T02:53:14.002Z,99714.70
2023-09-19T02:55:47.260Z,99713.05
2023-09-19T02:58:20.585Z,99708.05
2023-09-19T03:00:53.131Z,99705.77
2023-09-19T03:03:25.821Z,99706.77
2023-09-19T03:05:59.901Z,99703.02
2023-09-19T03:08:32.351Z,99702.81
2023-09-19T03:11:06.951Z,99699.08
2023-09-19T03:13:39.858Z,99698.55
2023-09-19T03:16:13.077Z,99698.23
2023-09-19T03:18:46.530Z,99696.80
2023-09-19T03:21:20.884Z,99698.80
2023-09-19T03:23:52.948Z,99697.42
2023-09-19T03:26:27.647Z,99699.80
2023-09-19T03:29:00.045Z,99701.41
2023-09-19T03:31:32.294Z,99698.94
2023-09-19T03:34:05.034Z,99695.29
2023-09-19T03:36:37.166Z,99693.34
2023-09-19T03:39:11.886Z,99691.27
2023-09-19T03:41:46.406Z,99686.55
2023-09-19T03:44:18.793Z,99686.34
2023-09-19T03:46:51.701Z,99688.31
2023-09-19T03:49:27.149Z,99684.60
2023-09-19T03:51:59.734Z,99682.27
2023-09-19T03:54:35.861Z,99678.89
2023-09-19T03:57:08.837Z,99682.48
2023-09-19T03:59:44.221Z,99677.71
2023-09-19T04:02:23.920Z,99675.58
2023-09-19T04:04:56.647Z,99670.52
2023-09-19T04:07:30.450Z,99668.19
2023-09-19T04:10:05.792Z,99670.58
2023-09-19T04:12:37.893Z,99668.67
2023-09-19T04:15:14.619Z,99666.23
2023-09-19T04:17:48.036Z,99666.17
2023-09-19T04:20:21.787Z,99671.39
2023-09-19T04:22:54.098Z,99663.59
2023-09-19T04:25:29.129Z,99666.04
2023-09-19T04:28:01.805Z,99658.29
2023-09-19T04:30:36.589Z,99655.57
2023-09-19T04:33:09.043Z,99650.39
2023-09-19T04:35:43.892Z,99653.04
2023-09-19T04:38:16.101Z,99650.25
2023-09-19T04:40:48.567Z,99654.19
2023-09-19T04:43:23.069Z,99652.81
2023-09-19T04:45:58.013Z,99651.46
2023-09-19T04:48:31.100Z,99646.48
2023-09-19T04:51:03.522Z,99645.53
2023-09-19T04:53:35.984Z,99643.50
2023-09-19T04:56:09.421Z,99649.41
2023-09-19T04:58:41.686Z,99645.02
2023-09-19T05:01:16.658Z,99645.04
2023-09-19T05:03:53.663Z,99646.04
2023-09-19T05:06:27.993Z,99649.20
2023-09-19T05:09:01.635Z,99647.48
2023-09-19T05:11:34.532Z,99645.87
2023-09-19T05:14:07.021Z,99647.45
2023-09-19T05:16:41.219Z,99642.64
2023-09-19T05:19:13.929Z,99639.66
2023-09-19T05:21:46.563Z,99643.61
2023-09-19T05:24:19.224Z,99641.44
2023-09-19T05:26:52.553Z,99638.99
2023-09-19T05:29:24.780Z,99640.64
2023-09-19T05:31:57.202Z,99642.39
2023-09-19T05:34:31.491Z,99639.58
2023-09-19T05:37:03.973Z,99639.97
2023-09-19T05:39:36.189Z,99631.16
2023-09-19T05:42:09.431Z,99634.79
2023-09-19T05:44:41.655Z,99632.85
2023-09-19T05:47:14.292Z,99628.16
2023-09-19T05:49:46.611Z,99629.98
2023-09-19T05:52:18.999Z,99628.21
2023-09-19T05:54:52.361Z,99623.89
2023-09-19T05:57:26.044Z,99626.77
2023-09-19T05:59:58.178Z,99626.82
2023-09-19T06:02:31.721Z,99637.16
2023-09-19T06:05:04.636Z,99643.77
2023-09-19T06:07:38.491Z,99649.19
2023-09-19T06:10:11.587Z,99657.14
2023-09-19T06:12:45.577Z,99652.77
2023-09-19T06:15:20.675Z,99656.64
2023-09-19T06:17:56.678Z,99659.36
2023-09-19T06:20:30.159Z,99663.90
2023-09-19T06:23:03.558Z,99664.77
2023-09-19T06:25:35.912Z,99661.63
2023-09-19T06:28:11.700Z,99662.36
2023-09-19T06:30:43.978Z,99665.31
2023-09-19T06:33:19.752Z,99661.48
2023-09-19T06:35:54.022Z,99659.74
2023-09-19T06:38:26.435Z,99665.45
2023-09-19T06:40:58.786Z,99663.45
2023-09-19T06:43:32.101Z,99665.05
2023-09-19T06:46:05.208Z,99669.69
2023-09-19T06:48:38.014Z,99671.11
2023-09-19T06:51:11.317Z,99673.69
2023-09-19T06:53:43.767Z,99672.67
2023-09-19T06:56:15.818Z,99670.70
2023-09-19T06:58:48.293Z,99665.42
2023-09-19T07:01:21.911Z,99665.90
2023-09-19T07:03:54.631Z,99666.99
2023-09-19T07:06:27.400Z,99668.75
2023-09-19T07:08:59.543Z,99670.36
2023-09-19T07:11:32.160Z,99675.73
2023-09-19T07:14:04.722Z,99680.80
2023-09-19T07:16:37.428Z,99686.53
2023-09-19T07:19:12.595Z,99688.30
2023-09-19T07:21:44.808Z,99687.77
2023-09-19T07:24:17.106Z,99694.64
2023-09-19T07:26:49.502Z,99692.42
2023-09-19T07:29:22.360Z,99696.70
2023-09-19T07:31:54.578Z,99700.71
2023-09-19T07:34:26.726Z,99703.58
2023-09-19T07:36:58.865Z,99706.80
2023-09-19T07:39:31.243Z,99709.04
2023-09-19T07:42:03.893Z,99716.58
2023-09-19T07:44:37.283Z,99723.48
2023-09-19T07:47:10.980Z,99727.70
2023-09-19T07:49:44.980Z,99723.98
2023-09-19T07:52:17.416Z,99720.81
2023-09-19T07:54:50.716Z,99716.23
2023-09-19T07:57:22.842Z,99716.04
2023-09-19T07:59:55.228Z,99715.35
2023-09-19T08:02:27.408Z,99722.05
2023-09-19T08:05:01.969Z,99725.23
2023-09-19T08:07:34.276Z,99732.69
2023-09-19T08:10:09.103Z,99738.60
2023-09-19T08:12:47.481Z,99742.20
2023-09-19T08:15:21.995Z,99750.05
2023-09-19T08:17:54.400Z,99748.07
2023-09-19T08:20:26.986Z,99744.50
2023-09-19T08:23:00.057Z,99745.20
2023-09-19T08:25:32.925Z,99748.91
2023-09-19T08:28:09.617Z,99752.02
2023-09-19T08:30:42.967Z,99749.95
2023-09-19T08:33:16.454Z,99753.55
2023-09-19T08:35:48.872Z,99754.21
2023-09-19T08:38:22.171Z,99756.25
2023-09-19T08:40:54.562Z,99752.89
2023-09-19T08:43:26.834Z,99749.41
2023-09-19T08:46:11.833Z,99743.83
2023-09-19T08:48:54.265Z,99743.04
2023-09-19T08:51:42.276Z,99739.29
2023-09-19T08:54:23.547Z,99738.61
2023-09-19T08:56:59.877Z,99739.06
2023-09-19T08:59:32.967Z,99735.52
2023-09-19T09:02:06.459Z,99738.15
2023-09-19T09:04:38.844Z,99741.52
2023-09-19T09:07:14.904Z,99746.45
2023-09-19T09:09:47.377Z,99755.68
2023-09-19T09:12:21.049Z,99765.06
2023-09-19T09:14:53.801Z,99778.69
2023-09-19T09:17:26.590Z,99780.24
2023-09-19T09:20:00.033Z,99762.00
2023-09-19T09:22:32.940Z,99750.69
2023-09-19T09:25:06.045Z,99759.20
2023-09-19T09:27:38.332Z,99767.52
2023-09-19T09:30:14.382Z,99774.70
2023-09-19T09:33:02.051Z,99781.27
2023-09-19T09:35:40.218Z,99789.20
2023-09-19T09:38:13.623Z,99799.11
2023-09-19T09:41:01.101Z,99798.95
2023-09-19T09:43:41.435Z,99798.45
2023-09-19T09:46:36.502Z,99798.98
2023-09-19T09:49:27.930Z,99807.97
2023-09-19T09:52:12.222Z,99810.60
2023-09-19T09:55:06.669Z,99816.31
2023-09-19T09:57:42.275Z,99820.12
2023-09-19T10:00:21.875Z,99821.91
2023-09-19T10:02:54.563Z,99825.73
2023-09-19T10:05:30.227Z,99826.64
2023-09-19T10:08:21.024Z,99830.37
2023-09-19T10:11:05.012Z,99835.54
2023-09-19T10:13:43.287Z,99836.92
2023-09-19T10:16:21.188Z,99833.25
2023-09-19T10:18:59.674Z,99831.71
2023-09-19T10:21:32.683Z,99831.89
2023-09-19T10:24:06.092Z,99830.73
2023-09-19T10:26:38.880Z,99832.95
2023-09-19T10:29:12.121Z,99835.08
2023-09-19T10:31:50.286Z,99834.42
2023-09-19T10:34:24.720Z,99829.31
2023-09-19T10:36:56.943Z,99826.79
2023-09-19T10:39:32.848Z,99821.11
2023-09-19T10:42:08.452Z,99818.15
2023-09-19T10:44:44.678Z,99815.20
2023-09-19T10:47:17.219Z,99816.81
2023-09-19T10:49:50.185Z,99820.58
2023-09-19T10:52:27.044Z,99824.85
2023-09-19T10:55:02.741Z,99826.94
2023-09-19T10:57:37.318Z,99829.34
2023-09-19T11:00:25.563Z,99839.05
2023-09-19T11:03:24.626Z,99838.39
2023-09-19T11:06:12.829Z,99840.02
2023-09-19T11:09:25.123Z,99841.56
2023-09-19T11:11:58.715Z,99841.67
2023-09-19T11:14:46.794Z,99841.27
2023-09-19T11:17:48.224Z,99843.42
2023-09-19T11:20:43.089Z,99844.47
2023-09-19T11:23:32.135Z,99848.25
2023-09-19T11:26:05.969Z,99848.05
2023-09-19T11:28:40.572Z,99845.05
2023-09-19T11:32:00.923Z,99841.62
2023-09-19T11:34:49.890Z,99839.23
2023-09-19T11:38:12.293Z,99842.02
2023-09-19T11:40:56.757Z,99849.39
2023-09-19T11:43:41.718Z,99856.06
2023-09-19T11:46:25.739Z,99852.98
2023-09-19T11:49:09.436Z,99852.58
2023-09-19T11:51:46.082Z,99857.13
2023-09-19T11:54:23.349Z,99859.66
2023-09-19T11:56:56.726Z,99859.30
2023-09-19T11:59:34.605Z,99864.36
2023-09-19T12:02:10.127Z,99861.47
2023-09-19T12:04:46.629Z,99862.39
2023-09-19T12:07:25.260Z,99864.48
2023-09-19T12:10:13.069Z,99867.70
2023-09-19T12:12:51.320Z,99867.51
2023-09-19T12:15:29.913Z,99866.48
2023-09-19T12:18:09.243Z,99867.81
2023-09-19T12:20:50.158Z,99872.45
2023-09-19T12:23:23.086Z,99874.61
2023-09-19T12:25:58.857Z,99874.98
2023-09-19T12:28:36.276Z,99873.34
2023-09-19T12:31:13.204Z,99877.18
2023-09-19T12:33:45.863Z,99880.83
2023-09-19T12:36:31.478Z,99882.42
2023-09-19T12:39:10.258Z,99881.31
2023-09-19T12:41:46.581Z,99887.65
2023-09-19T12:44:19.437Z,99886.30
2023-09-19T12:46:52.290Z,99885.06
2023-09-19T12:49:24.478Z,99883.73
2023-09-19T12:52:00.659Z,99885.81
2023-09-19T12:54:43.141Z,99877.96
2023-09-19T12:57:28.603Z,99873.85
2023-09-19T13:00:01.247Z,99872.91
2023-09-19T13:02:33.999Z,99878.70
2023-09-19T13:05:08.410Z,99878.75
2023-09-19T13:07:48.540Z,99874.05
2023-09-19T13:10:25.565Z,99872.66
2023-09-19T13:13:00.156Z,99873.02
2023-09-19T13:15:53.614Z,99869.70
2023-09-19T13:18:28.166Z,99872.67
2023-09-19T13:21:16.401Z,99872.63
2023-09-19T13:23:49.655Z,99878.42
2023-09-19T13:26:23.980Z,99880.34
2023-09-19T13:28:56.585Z,99879.52
2023-09-19T13:31:28.890Z,99883.20
2023-09-19T13:34:01.206Z,99886.91
2023-09-19T13:36:33.899Z,99889.17
2023-09-19T13:39:06.701Z,99884.84
2023-09-19T13:41:44.048Z,99887.54
2023-09-19T13:44:19.318Z,99887.51
2023-09-19T13:46:52.763Z,99889.57
2023-09-19T13:49:25.413Z,99887.88
2023-09-19T13:51:59.550Z,99888.22
2023-09-19T13:54:31.989Z,99889.30
2023-09-19T13:57:04.561Z,99884.84
2023-09-19T13:59:37.221Z,99885.41
2023-09-19T14:02:09.919Z,99882.33
2023-09-19T14:04:42.361Z,99882.52
2023-09-19T14:07:16.627Z,99892.74
2023-09-19T14:09:54.121Z,99893.42
2023-09-19T14:12:28.826Z,99894.42
2023-09-19T14:15:00.873Z,99895.42
2023-09-19T14:17:34.356Z,99901.26
2023-09-19T14:20:08.416Z,99901.44
2023-09-19T14:22:41.137Z,99904.83
2023-09-19T14:25:13.566Z,99908.52
2023-09-19T14:27:46.124Z,99906.66
2023-09-19T14:30:18.815Z,99903.95
2023-09-19T14:32:57.356Z,99899.48
2023-09-19T14:35:29.496Z,99907.60
2023-09-19T14:38:03.040Z,99909.30
2023-09-19T14:40:37.526Z,99910.54
2023-09-19T14:43:09.909Z,99910.57
2023-09-19T14:45:42.261Z,99913.89
2023-09-19T14:48:14.678Z,99915.82
2023-09-19T14:50:49.477Z,99916.88
2023-09-19T14:53:22.220Z,99917.95
2023-09-19T14:55:56.291Z,99919.33
2023-09-19T14:58:31.247Z,99920.79
2023-09-19T15:01:11.564Z,99925.35
2023-09-19T15:03:45.754Z,99922.90
2023-09-19T15:06:23.170Z,99923.44
2023-09-19T15:08:55.351Z,99924.64
2023-09-19T15:11:27.444Z,99928.44
2023-09-19T15:14:00.276Z,99923.79
2023-09-19T15:16:34.274Z,99917.42
2023-09-19T15:19:08.724Z,99923.98
2023-09-19T15:21:41.624Z,99924.17
2023-09-19T15:24:14.065Z,99923.98
2023-09-19T15:26:49.355Z,99920.23
2023-09-19T15:29:22.802Z,99920.39
2023-09-19T15:31:58.737Z,99922.13
2023-09-19T15:34:31.337Z,99922.27
2023-09-19T15:37:07.204Z,99921.83
2023-09-19T15:39:39.391Z,99923.08
2023-09-19T15:42:13.347Z,99925.91
2023-09-19T15:44:47.987Z,99925.27
2023-09-19T15:47:28.761Z,99930.53
2023-09-19T15:50:01.517Z,99935.13
2023-09-19T15:52:33.781Z,99939.29
2023-09-19T15:55:08.552Z,99946.76
2023-09-19T15:57:41.658Z,99941.40
2023-09-19T16:00:18.542Z,99946.00
2023-09-19T16:02:52.936Z,99948.43
2023-09-19T16:05:26.475Z,99956.02
2023-09-19T16:08:01.620Z,99956.55
2023-09-19T16:10:36.306Z,99962.41
2023-09-19T16:13:09.308Z,99961.02
2023-09-19T16:15:45.885Z,99965.55
2023-09-19T16:18:17.958Z,99965.50
2023-09-19T16:20:51.593Z,99971.77
2023-09-19T16:23:25.389Z,99978.25
2023-09-19T16:26:07.183Z,99979.63
2023-09-19T16:28:40.477Z,99980.33
2023-09-19T16:31:13.066Z,99982.90
2023-09-19T16:33:47.314Z,99984.20
2023-09-19T16:36:24.006Z,99982.09
2023-09-19T16:38:56.497Z,99981.61
2023-09-19T16:41:29.055Z,99987.15
2023-09-19T16:44:02.449Z,99988.84
2023-09-19T16:46:38.320Z,99988.77
2023-09-19T16:49:11.145Z,99985.89
2023-09-19T16:51:45.624Z,99990.45
2023-09-19T16:54:18.145Z,99995.24
2023-09-19T16:56:50.978Z,99999.33
2023-09-19T16:59:25.201Z,100003.81
2023-09-19T17:01:58.561Z,100008.45
2023-09-19T17:04:32.676Z,100012.87
2023-09-19T17:07:05.196Z,100011.48
2023-09-19T17:09:37.583Z,100016.30
2023-09-19T17:12:11.788Z,100020.82
2023-09-19T17:14:45.200Z,100017.58
2023-09-19T17:17:17.738Z,100018.02
2023-09-19T17:19:50.757Z,100022.11
2023-09-19T17:22:24.687Z,100026.63
2023-09-19T17:24:56.836Z,100029.85
2023-09-19T17:27:29.405Z,100034.69
2023-09-19T17:30:01.485Z,100034.52
2023-09-19T17:32:33.890Z,100037.92
2023-09-19T17:35:06.803Z,100038.99
2023-09-19T17:37:40.465Z,100044.63
2023-09-19T17:40:16.644Z,100046.00
2023-09-19T17:42:50.086Z,100047.61
2023-09-19T17:45:23.479Z,100051.42
2023-09-19T17:47:58.049Z,100058.03
2023-09-19T17:50:30.581Z,100061.73
2023-09-19T17:53:04.153Z,100066.60
2023-09-19T17:55:40.988Z,100073.23
2023-09-19T17:58:17.144Z,100075.61
2023-09-19T18:00:49.606Z,100080.14
2023-09-19T18:03:26.326Z,100084.84
2023-09-19T18:05:58.652Z,100089.08
2023-09-19T18:08:31.003Z,100087.45
2023-09-19T18:11:05.219Z,100093.20
2023-09-19T18:13:37.631Z,100091.45
2023-09-19T18:16:11.761Z,100094.70
2023-09-19T18:18:47.021Z,100101.80
2023-09-19T18:21:22.628Z,100103.31
2023-09-19T18:23:59.058Z,100107.13
2023-09-19T18:26:31.713Z,100106.80
2023-09-19T18:29:07.034Z,100109.48
2023-09-19T18:31:50.786Z,100112.36
2023-09-19T18:34:23.282Z,100114.19
2023-09-19T18:37:00.176Z,100117.63
2023-09-19T18:39:35.839Z,100121.36
2023-09-19T18:42:09.601Z,100122.36
2023-09-19T18:44:47.546Z,100129.02
2023-09-19T18:47:18.310Z,100127.90
2023-09-19T18:49:52.209Z,100128.46
2023-09-19T18:52:28.798Z,100130.45
2023-09-19T18:55:01.109Z,100134.31
2023-09-19T18:57:33.242Z,100135.36
2023-09-19T19:00:06.223Z,100139.52
2023-09-19T19:02:40.984Z,100137.31
2023-09-19T19:05:14.589Z,100138.30
2023-09-19T19:07:47.265Z,100140.43
2023-09-19T19:10:21.736Z,100138.69
2023-09-19T19:12:54.102Z,100141.24
2023-09-19T19:15:26.619Z,100143.55
2023-09-19T19:18:00.204Z,100143.53
2023-09-19T19:20:33.977Z,100143.42
2023-09-19T19:23:06.850Z,100144.67
2023-09-19T19:25:48.574Z,100142.75
2023-09-19T19:28:26.232Z,100148.31
2023-09-19T19:30:58.395Z,100151.67
2023-09-19T19:33:30.754Z,100151.92
2023-09-19T19:36:09.638Z,100156.69
2023-09-19T19:38:42.933Z,100153.87
2023-09-19T19:41:15.543Z,100152.23
2023-09-19T19:43:50.640Z,100152.98
2023-09-19T19:46:23.327Z,100149.36
2023-09-19T19:48:55.585Z,100150.11
2023-09-19T19:51:28.214Z,100152.58
2023-09-19T19:54:00.347Z,100156.05
2023-09-19T19:56:34.901Z,100160.52
2023-09-19T19:59:07.652Z,100162.61
2023-09-19T20:01:41.975Z,100162.35
2023-09-19T20:04:15.520Z,100161.63
2023-09-19T20:06:47.724Z,100162.11
2023-09-19T20:09:22.598Z,100158.73
2023-09-19T20:11:58.435Z,100160.82
2023-09-19T20:14:30.922Z,100163.48
2023-09-19T20:17:05.315Z,100160.80
2023-09-19T20:19:37.409Z,100162.60
2023-09-19T20:22:12.222Z,100162.44
2023-09-19T20:24:47.459Z,100165.09
2023-09-19T20:27:22.557Z,100165.26
2023-09-19T20:29:54.613Z,100164.27
2023-09-19T20:32:26.982Z,100168.04
2023-09-19T20:35:01.192Z,100170.92
2023-09-19T20:37:34.220Z,100172.02
2023-09-19T20:40:07.785Z,100173.62
2023-09-19T20:42:40.653Z,100180.52
2023-09-19T20:45:14.307Z,100177.55
2023-09-19T20:47:46.676Z,100180.21
2023-09-19T20:50:20.604Z,100181.14
2023-09-19T20:52:54.074Z,100179.69
2023-09-19T20:55:26.732Z,100180.64
2023-09-19T20:58:00.824Z,100185.83
2023-09-19T21:00:36.108Z,100185.85
2023-09-19T21:03:08.648Z,100188.12
2023-09-19T21:05:41.132Z,100191.19
2023-09-19T21:08:13.127Z,100191.78
2023-09-19T21:10:45.491Z,100195.23
2023-09-19T21:13:17.718Z,100195.95
2023-09-19T21:15:50.428Z,100200.01
2023-09-19T21:18:23.029Z,100204.42
2023-09-19T21:20:55.855Z,100205.70
2023-09-19T21:23:27.988Z,100206.81
2023-09-19T21:26:00.557Z,100203.95
2023-09-19T21:28:32.756Z,100206.39
2023-09-19T21:31:08.522Z,100207.04
2023-09-19T21:33:43.740Z,100204.10
2023-09-19T21:36:21.945Z,100203.70
2023-09-19T21:39:00.173Z,100206.73
2023-09-19T21:41:35.135Z,100205.91
2023-09-19T21:44:08.852Z,100208.33
2023-09-19T21:46:42.945Z,100204.39
2023-09-19T21:49:15.024Z,100203.59
2023-09-19T21:51:47.351Z,100202.54
2023-09-19T21:54:24.860Z,100204.27
2023-09-19T21:56:59.630Z,100210.50
2023-09-19T21:59:31.582Z,100203.56
2023-09-19T22:02:04.097Z,100208.32
2023-09-19T22:04:37.061Z,100211.29
2023-09-19T22:07:10.136Z,100210.75
2023-09-19T22:09:42.040Z,100207.91
2023-09-19T22:12:14.798Z,100208.87
2023-09-19T22:14:46.846Z,100207.01
2023-09-19T22:17:20.485Z,100203.95
2023-09-19T22:19:55.188Z,100207.39
2023-09-19T22:22:31.001Z,100209.33
2023-09-19T22:25:03.654Z,100211.58
2023-09-19T22:27:36.431Z,100210.52
2023-09-19T22:30:13.379Z,100208.75
2023-09-19T22:32:46.080Z,100211.27
2023-09-19T22:35:23.238Z,100210.70
2023-09-19T22:38:08.167Z,100208.13
2023-09-19T22:40:52.855Z,100206.67
2023-09-19T22:43:33.389Z,100207.61
2023-09-19T22:46:12.465Z,100212.25
2023-09-19T22:48:47.349Z,100210.52
2023-09-19T22:51:26.474Z,100216.12
2023-09-19T22:54:00.645Z,100216.98
2023-09-19T22:56:32.678Z,100214.23
2023-09-19T22:59:06.049Z,100219.30
2023-09-19T23:01:42.602Z,100217.07
2023-09-19T23:04:18.501Z,100220.67
2023-09-19T23:06:53.928Z,100226.62
2023-09-19T23:09:31.251Z,100228.70
2023-09-19T23:12:06.717Z,100229.87
2023-09-19T23:14:43.101Z,100231.54
2023-09-19T23:17:22.829Z,100232.34
2023-09-19T23:19:57.263Z,100231.04
2023-09-19T23:22:30.311Z,100234.35
2023-09-19T23:25:13.679Z,100235.81
2023-09-19T23:27:48.683Z,100234.64
2023-09-19T23:30:24.283Z,100241.69
2023-09-19T23:32:56.927Z,100239.71
2023-09-19T23:35:29.756Z,100242.49
2023-09-19T23:38:03.514Z,100243.08
2023-09-19T23:40:37.522Z,100246.27
2023-09-19T23:43:12.953Z,100243.86
2023-09-19T23:45:45.602Z,100249.38
2023-09-19T23:48:20.559Z,100251.75
2023-09-19T23:50:53.283Z,100252.95
2023-09-19T23:53:27.561Z,100257.30
2023-09-19T23:55:59.891Z,100257.48
2023-09-19T23:58:34.322Z,100257.92
